createdAt,value
2023-05-03T00:02:25.489Z,53.86
2023-05-03T00:04:53.803Z,54.47
2023-05-03T00:07:22.368Z,54.89
2023-05-03T00:09:50.204Z,54.74
2023-05-03T00:12:17.340Z,55.02
2023-05-03T00:14:46.410Z,55.63
2023-05-03T00:17:13.611Z,56.03
2023-05-03T00:19:40.748Z,56.61
2023-05-03T00:22:09.082Z,56.35
2023-05-03T00:24:36.332Z,56.46
2023-05-03T00:27:04.735Z,57.62
2023-05-03T00:29:31.821Z,57.67
2023-05-03T00:32:00.426Z,58.00
2023-05-03T00:34:27.844Z,58.41
2023-05-03T00:36:54.942Z,58.33
2023-05-03T00:39:22.062Z,58.82
2023-05-03T00:41:49.135Z,58.69
2023-05-03T00:44:16.357Z,58.48
2023-05-03T00:46:43.446Z,59.19
2023-05-03T00:49:10.811Z,59.68
2023-05-03T00:51:37.910Z,59.91
2023-05-03T00:54:05.319Z,59.98
2023-05-03T00:56:44.056Z,60.27
2023-05-03T00:59:18.999Z,60.59
2023-05-03T01:01:51.319Z,60.72
2023-05-03T01:04:20.314Z,61.03
2023-05-03T01:06:55.830Z,60.96
2023-05-03T01:09:37.728Z,61.23
2023-05-03T01:12:34.782Z,60.95
2023-05-03T01:15:33.418Z,61.27
2023-05-03T01:18:12.622Z,61.60
2023-05-03T01:20:44.214Z,61.76
2023-05-03T01:23:18.919Z,61.76
2023-05-03T01:25:45.932Z,62.15
2023-05-03T01:28:13.086Z,62.07
2023-05-03T01:30:41.288Z,62.17
2023-05-03T01:33:17.149Z,62.82
2023-05-03T01:36:05.379Z,62.85
2023-05-03T01:38:36.738Z,62.75
2023-05-03T01:41:09.285Z,62.91
2023-05-03T01:43:37.520Z,63.20
2023-05-03T01:46:04.865Z,62.78
2023-05-03T01:48:31.961Z,62.73
2023-05-03T01:50:59.091Z,63.28
2023-05-03T01:53:26.211Z,63.60
2023-05-03T01:55:53.295Z,63.51
2023-05-03T01:58:20.889Z,63.47
2023-05-03T02:00:48.148Z,63.70
2023-05-03T02:03:15.247Z,63.70
2023-05-03T02:05:42.660Z,64.33
2023-05-03T02:08:09.768Z,63.77
2023-05-03T02:10:36.925Z,64.44
2023-05-03T02:13:04.264Z,63.73
2023-05-03T02:15:32.246Z,64.47
2023-05-03T02:18:02.701Z,64.75
2023-05-03T02:20:35.519Z,64.55
2023-05-03T02:23:02.741Z,64.68
2023-05-03T02:25:30.113Z,64.86
2023-05-03T02:27:57.170Z,64.78
2023-05-03T02:30:24.961Z,64.60
2023-05-03T02:32:52.149Z,64.43
2023-05-03T02:35:20.692Z,64.38
2023-05-03T02:37:48.199Z,65.09
2023-05-03T02:40:16.358Z,65.00
2023-05-03T02:42:45.749Z,64.76
2023-05-03T02:45:15.687Z,64.99
2023-05-03T02:47:42.753Z,65.54
2023-05-03T02:50:10.116Z,65.60
2023-05-03T02:52:39.775Z,65.77
2023-05-03T02:55:07.105Z,65.47
2023-05-03T02:57:34.772Z,65.56
2023-05-03T03:00:05.152Z,65.98
2023-05-03T03:02:33.206Z,66.00
2023-05-03T03:05:00.792Z,66.11
2023-05-03T03:07:28.677Z,66.73
2023-05-03T03:09:57.621Z,66.67
2023-05-03T03:12:26.407Z,66.66
2023-05-03T03:14:54.721Z,67.09
2023-05-03T03:17:21.953Z,67.41
2023-05-03T03:19:49.092Z,67.06
2023-05-03T03:22:16.585Z,67.42
2023-05-03T03:24:45.401Z,67.43
2023-05-03T03:27:12.970Z,67.91
2023-05-03T03:29:40.312Z,67.69
2023-05-03T03:32:10.923Z,68.26
2023-05-03T03:34:37.969Z,68.50
2023-05-03T03:37:05.853Z,68.20
2023-05-03T03:39:33.406Z,68.60
2023-05-03T03:42:03.128Z,68.69
2023-05-03T03:44:30.728Z,69.09
2023-05-03T03:46:57.976Z,69.05
2023-05-03T03:49:25.521Z,69.68
2023-05-03T03:51:52.672Z,69.75
2023-05-03T03:54:19.825Z,69.99
2023-05-03T03:56:49.723Z,69.96
2023-05-03T03:59:17.241Z,69.47
2023-05-03T04:01:45.266Z,69.46
2023-05-03T04:04:12.522Z,68.78
2023-05-03T04:06:39.689Z,69.44
2023-05-03T04:09:10.738Z,69.09
2023-05-03T04:11:38.591Z,68.58
2023-05-03T04:14:06.121Z,68.24
2023-05-03T04:16:33.671Z,67.72
2023-05-03T04:19:03.104Z,67.96
2023-05-03T04:21:32.510Z,67.65
2023-05-03T04:24:00.791Z,66.89
2023-05-03T04:26:32.123Z,66.55
2023-05-03T04:29:10.194Z,66.43
2023-05-03T04:31:39.094Z,66.20
2023-05-03T04:34:06.684Z,66.69
2023-05-03T04:36:34.631Z,65.98
2023-05-03T04:39:02.012Z,65.75
2023-05-03T04:41:29.196Z,65.78
2023-05-03T04:43:56.763Z,65.80
2023-05-03T04:46:24.027Z,66.01
2023-05-03T04:48:51.809Z,66.08
2023-05-03T04:51:19.642Z,66.40
2023-05-03T04:53:47.730Z,66.08
2023-05-03T04:56:20.636Z,65.92
2023-05-03T04:58:47.687Z,65.90
2023-05-03T05:01:16.684Z,66.31
2023-05-03T05:03:44.067Z,65.69
2023-05-03T05:06:17.545Z,66.13
2023-05-03T05:08:45.553Z,65.55
2023-05-03T05:11:15.059Z,65.53
2023-05-03T05:13:42.523Z,65.93
2023-05-03T05:16:09.779Z,66.22
2023-05-03T05:18:39.449Z,65.95
2023-05-03T05:21:08.849Z,65.35
2023-05-03T05:23:37.762Z,65.23
2023-05-03T05:26:05.480Z,65.16
2023-05-03T05:28:33.275Z,65.03
2023-05-03T05:31:01.184Z,65.04
2023-05-03T05:33:29.211Z,64.64
2023-05-03T05:35:57.290Z,64.89
2023-05-03T05:38:24.566Z,64.49
2023-05-03T05:40:55.974Z,64.72
2023-05-03T05:43:23.435Z,64.60
2023-05-03T05:45:50.680Z,64.43
2023-05-03T05:48:18.432Z,64.94
2023-05-03T05:50:46.257Z,64.67
2023-05-03T05:53:14.965Z,64.96
2023-05-03T05:55:48.807Z,64.61
2023-05-03T05:58:16.351Z,64.58
2023-05-03T06:00:49.583Z,64.48
2023-05-03T06:03:17.814Z,64.64
2023-05-03T06:05:47.118Z,63.98
2023-05-03T06:08:14.277Z,64.13
2023-05-03T06:10:41.647Z,63.99
2023-05-03T06:13:09.925Z,62.98
2023-05-03T06:15:37.373Z,62.93
2023-05-03T06:18:04.879Z,61.59
2023-05-03T06:20:32.291Z,62.12
2023-05-03T06:23:02.173Z,61.50
2023-05-03T06:25:29.304Z,61.33
2023-05-03T06:27:57.369Z,59.78
2023-05-03T06:30:28.767Z,59.38
2023-05-03T06:33:02.092Z,59.21
2023-05-03T06:35:29.653Z,58.68
2023-05-03T06:37:56.734Z,57.51
2023-05-03T06:40:26.092Z,57.31
2023-05-03T06:42:53.217Z,56.76
2023-05-03T06:45:31.862Z,55.78
2023-05-03T06:47:59.419Z,54.70
2023-05-03T06:50:27.028Z,53.72
2023-05-03T06:52:54.883Z,52.71
2023-05-03T06:55:21.944Z,52.62
2023-05-03T06:57:49.373Z,51.25
2023-05-03T07:00:17.160Z,50.94
2023-05-03T07:02:44.659Z,50.63
2023-05-03T07:05:12.065Z,51.01
2023-05-03T07:07:39.290Z,50.01
2023-05-03T07:10:07.442Z,49.88
2023-05-03T07:12:34.595Z,50.07
2023-05-03T07:15:01.712Z,48.47
2023-05-03T07:17:28.918Z,47.21
2023-05-03T07:19:57.498Z,45.86
2023-05-03T07:22:28.167Z,44.79
2023-05-03T07:24:55.960Z,45.67
2023-05-03T07:27:23.102Z,45.36
2023-05-03T07:29:50.216Z,44.81
2023-05-03T07:32:17.384Z,43.93
2023-05-03T07:34:44.682Z,44.20
2023-05-03T07:37:12.224Z,43.33
2023-05-03T07:39:39.838Z,42.41
2023-05-03T07:42:07.815Z,41.91
2023-05-03T07:44:34.908Z,42.00
2023-05-03T07:47:01.996Z,41.70
2023-05-03T07:49:29.155Z,40.68
2023-05-03T07:51:56.558Z,41.26
2023-05-03T07:54:23.751Z,41.72
2023-05-03T07:56:52.108Z,40.23
2023-05-03T07:59:20.408Z,40.16
2023-05-03T08:01:47.543Z,40.38
2023-05-03T08:04:14.887Z,41.01
2023-05-03T08:06:43.244Z,40.50
2023-05-03T08:09:11.781Z,40.49
2023-05-03T08:11:39.501Z,40.27
2023-05-03T08:14:07.718Z,40.84
2023-05-03T08:16:34.849Z,40.07
2023-05-03T08:19:02.100Z,39.57
2023-05-03T08:21:30.512Z,40.04
2023-05-03T08:23:57.840Z,40.43
2023-05-03T08:26:28.738Z,41.90
2023-05-03T08:28:56.426Z,41.24
2023-05-03T08:31:23.744Z,40.44
2023-05-03T08:33:51.066Z,40.32
2023-05-03T08:36:18.545Z,40.88
2023-05-03T08:38:46.262Z,41.19
2023-05-03T08:41:32.265Z,42.45
2023-05-03T08:44:01.168Z,41.50
2023-05-03T08:46:29.148Z,39.08
2023-05-03T08:48:56.783Z,39.21
2023-05-03T08:51:25.311Z,38.95
2023-05-03T08:53:52.810Z,38.57
2023-05-03T08:56:41.762Z,37.91
2023-05-03T08:59:09.479Z,38.53
2023-05-03T09:01:37.742Z,38.43
2023-05-03T09:04:06.030Z,38.50
2023-05-03T09:06:34.625Z,37.79
2023-05-03T09:09:05.462Z,37.08
2023-05-03T09:11:34.301Z,36.56
2023-05-03T09:14:11.577Z,36.24
2023-05-03T09:16:40.661Z,35.75
2023-05-03T09:19:09.857Z,37.42
2023-05-03T09:21:37.617Z,37.71
2023-05-03T09:24:24.976Z,37.68
2023-05-03T09:26:53.304Z,35.78
2023-05-03T09:29:36.229Z,35.19
2023-05-03T09:32:06.126Z,35.40
2023-05-03T09:34:34.126Z,35.07
2023-05-03T09:37:01.675Z,35.26
2023-05-03T09:39:28.936Z,35.46
2023-05-03T09:41:56.488Z,34.97
2023-05-03T09:44:42.204Z,35.67
2023-05-03T09:47:10.288Z,36.10
2023-05-03T09:49:38.479Z,36.10
2023-05-03T09:52:07.255Z,36.58
2023-05-03T09:54:38.059Z,36.38
2023-05-03T09:57:06.746Z,35.28
2023-05-03T09:59:35.372Z,34.99
2023-05-03T10:02:07.938Z,34.88
2023-05-03T10:04:48.440Z,34.49
2023-05-03T10:07:18.826Z,33.59
2023-05-03T10:09:47.042Z,33.07
2023-05-03T10:12:17.553Z,33.68
2023-05-03T10:14:47.844Z,34.08
2023-05-03T10:17:47.709Z,34.00
2023-05-03T10:20:36.887Z,33.94
2023-05-03T10:23:11.880Z,33.51
2023-05-03T10:25:41.393Z,33.67
2023-05-03T10:28:09.928Z,33.70
2023-05-03T10:30:39.455Z,34.52
2023-05-03T10:33:12.431Z,33.53
2023-05-03T10:35:42.629Z,32.60
2023-05-03T10:38:22.153Z,32.53
2023-05-03T10:40:49.744Z,31.87
2023-05-03T10:43:34.811Z,31.51
2023-05-03T10:46:29.568Z,33.61
2023-05-03T10:49:26.701Z,34.06
2023-05-03T10:51:54.005Z,34.43
2023-05-03T10:54:21.428Z,33.36
2023-05-03T10:56:53.409Z,33.07
2023-05-03T10:59:22.206Z,32.97
2023-05-03T11:01:54.113Z,32.27
2023-05-03T11:04:34.154Z,32.22
2023-05-03T11:07:01.967Z,31.75
2023-05-03T11:09:34.641Z,32.06
2023-05-03T11:12:06.699Z,31.01
2023-05-03T11:14:33.858Z,31.77
2023-05-03T11:17:02.218Z,32.41
2023-05-03T11:19:29.816Z,33.03
2023-05-03T11:21:58.486Z,31.58
2023-05-03T11:24:25.794Z,31.01
2023-05-03T11:26:53.090Z,31.48
2023-05-03T11:29:21.823Z,31.18
2023-05-03T11:31:49.154Z,31.22
2023-05-03T11:34:16.402Z,32.45
2023-05-03T11:36:43.879Z,32.36
2023-05-03T11:39:16.453Z,32.29
2023-05-03T11:41:44.277Z,32.36
2023-05-03T11:44:17.234Z,32.24
2023-05-03T11:46:47.759Z,31.71
2023-05-03T11:49:19.753Z,30.83
2023-05-03T11:51:51.599Z,30.97
2023-05-03T11:54:26.253Z,32.36
2023-05-03T11:56:59.623Z,31.74
2023-05-03T11:59:40.642Z,31.05
2023-05-03T12:02:10.540Z,30.88
2023-05-03T12:04:45.535Z,30.86
2023-05-03T12:07:15.855Z,30.20
2023-05-03T12:09:52.811Z,30.40
2023-05-03T12:12:31.495Z,31.32
2023-05-03T12:15:03.552Z,31.52
2023-05-03T12:17:37.025Z,32.06
2023-05-03T12:22:57.720Z,32.21
2023-05-03T12:25:28.323Z,32.66
2023-05-03T12:30:33.834Z,32.41
2023-05-03T12:33:04.326Z,32.50
2023-05-03T12:35:34.213Z,32.57
2023-05-03T12:38:04.582Z,33.16
2023-05-03T12:40:34.844Z,32.72
2023-05-03T12:43:02.339Z,32.37
2023-05-03T12:45:34.395Z,33.18
2023-05-03T12:48:03.108Z,34.23
2023-05-03T12:50:32.078Z,34.58
2023-05-03T12:53:02.623Z,34.21
2023-05-03T12:55:35.188Z,34.50
2023-05-03T12:58:36.848Z,34.11
2023-05-03T13:01:26.904Z,34.25
2023-05-03T13:03:43.483Z,34.18
2023-05-03T13:06:13.987Z,34.40
2023-05-03T13:11:13.299Z,35.33
2023-05-03T13:13:40.986Z,34.94
2023-05-03T13:16:09.447Z,35.41
2023-05-03T13:18:36.703Z,35.21
2023-05-03T13:21:04.152Z,34.01
2023-05-03T13:23:31.381Z,32.84
2023-05-03T13:25:59.485Z,33.42
2023-05-03T13:28:27.452Z,34.45
2023-05-03T13:30:54.822Z,33.77
2023-05-03T13:33:22.481Z,33.99
2023-05-03T13:35:49.769Z,33.25
2023-05-03T13:38:16.933Z,34.60
2023-05-03T13:40:44.133Z,33.25
2023-05-03T13:43:11.426Z,33.85
2023-05-03T13:45:38.636Z,32.99
2023-05-03T13:48:17.113Z,33.93
2023-05-03T13:50:46.162Z,34.28
2023-05-03T13:53:13.341Z,34.32
2023-05-03T13:55:40.724Z,34.92
2023-05-03T13:58:08.824Z,35.42
2023-05-03T14:00:36.316Z,35.13
2023-05-03T14:03:04.751Z,34.87
2023-05-03T14:05:32.182Z,35.15
2023-05-03T14:07:59.782Z,35.33
2023-05-03T14:10:27.837Z,35.39
2023-05-03T14:12:55.136Z,35.44
2023-05-03T14:15:22.401Z,35.37
2023-05-03T14:17:49.849Z,36.28
2023-05-03T14:20:20.172Z,36.04
2023-05-03T14:22:47.264Z,35.94
2023-05-03T14:25:14.360Z,35.36
2023-05-03T14:27:41.889Z,33.88
2023-05-03T14:30:10.660Z,34.06
2023-05-03T14:32:37.796Z,34.75
2023-05-03T14:35:05.745Z,34.87
2023-05-03T14:37:33.799Z,35.81
2023-05-03T14:40:01.113Z,35.49
2023-05-03T14:42:32.330Z,35.24
2023-05-03T14:45:00.603Z,35.63
2023-05-03T14:47:27.921Z,35.26
2023-05-03T14:49:56.433Z,35.50
2023-05-03T14:52:23.503Z,35.74
2023-05-03T14:54:50.659Z,36.11
2023-05-03T14:57:17.935Z,35.83
2023-05-03T14:59:45.906Z,35.92
2023-05-03T15:02:13.088Z,36.42
2023-05-03T15:04:40.544Z,36.44
2023-05-03T15:07:09.386Z,36.48
2023-05-03T15:09:38.162Z,36.55
2023-05-03T15:12:05.603Z,36.79
2023-05-03T15:14:32.776Z,36.56
2023-05-03T15:17:00.404Z,36.57
2023-05-03T15:19:28.522Z,36.79
2023-05-03T15:21:55.802Z,36.38
2023-05-03T15:24:23.216Z,36.72
2023-05-03T15:26:51.771Z,37.03
2023-05-03T15:29:19.011Z,36.94
2023-05-03T15:31:46.628Z,36.36
2023-05-03T15:34:14.239Z,36.76
2023-05-03T15:36:41.476Z,37.47
2023-05-03T15:39:09.572Z,37.04
2023-05-03T15:41:36.889Z,36.79
2023-05-03T15:44:05.635Z,36.90
2023-05-03T15:46:34.488Z,37.05
2023-05-03T15:49:02.019Z,37.09
2023-05-03T15:51:29.657Z,36.35
2023-05-03T15:53:56.810Z,36.50
2023-05-03T15:56:24.449Z,36.33
2023-05-03T15:58:52.058Z,36.24
2023-05-03T16:01:19.411Z,37.03
2023-05-03T16:03:48.144Z,37.60
2023-05-03T16:06:18.707Z,37.66
2023-05-03T16:08:46.186Z,37.70
2023-05-03T16:11:13.542Z,37.37
2023-05-03T16:13:41.044Z,36.77
2023-05-03T16:16:08.296Z,35.94
2023-05-03T16:18:35.527Z,35.69
2023-05-03T16:21:03.110Z,36.02
2023-05-03T16:23:30.385Z,36.38
2023-05-03T16:25:57.699Z,36.88
2023-05-03T16:28:25.057Z,36.78
2023-05-03T16:30:52.217Z,36.57
2023-05-03T16:33:19.653Z,36.71
2023-05-03T16:35:46.700Z,37.33
2023-05-03T16:38:13.825Z,37.35
2023-05-03T16:40:42.569Z,37.48
2023-05-03T16:43:10.439Z,37.47
2023-05-03T16:45:37.903Z,37.13
2023-05-03T16:48:07.387Z,37.25
2023-05-03T16:50:37.309Z,37.40
2023-05-03T16:53:04.526Z,36.89
2023-05-03T16:55:31.930Z,37.17
2023-05-03T16:58:00.105Z,37.78
2023-05-03T17:00:27.735Z,37.89
2023-05-03T17:02:54.999Z,38.03
2023-05-03T17:05:22.780Z,38.98
2023-05-03T17:07:49.862Z,39.67
2023-05-03T17:10:17.124Z,39.06
2023-05-03T17:12:47.495Z,39.07
2023-05-03T17:15:14.706Z,38.77
2023-05-03T17:17:41.869Z,39.14
2023-05-03T17:20:11.087Z,39.07
2023-05-03T17:22:38.293Z,40.21
2023-05-03T17:25:06.716Z,41.33
2023-05-03T17:27:33.897Z,42.76
2023-05-03T17:30:01.120Z,42.95
2023-05-03T17:32:28.282Z,43.37
2023-05-03T17:34:56.952Z,43.74
2023-05-03T17:37:24.995Z,41.92
2023-05-03T17:39:52.274Z,41.00
2023-05-03T17:42:19.410Z,41.05
2023-05-03T17:44:46.851Z,42.54
2023-05-03T17:47:13.962Z,43.35
2023-05-03T17:49:41.291Z,43.79
2023-05-03T17:52:08.437Z,44.58
2023-05-03T17:54:35.766Z,45.08
2023-05-03T17:57:03.533Z,45.69
2023-05-03T17:59:30.735Z,45.80
2023-05-03T18:01:57.938Z,46.61
2023-05-03T18:04:27.036Z,46.32
2023-05-03T18:06:54.305Z,46.44
2023-05-03T18:09:21.452Z,47.51
2023-05-03T18:11:49.525Z,47.59
2023-05-03T18:14:16.679Z,47.78
2023-05-03T18:16:43.920Z,47.94
2023-05-03T18:19:12.737Z,48.62
2023-05-03T18:21:40.038Z,49.32
2023-05-03T18:24:07.543Z,49.23
2023-05-03T18:26:34.659Z,48.98
2023-05-03T18:29:01.773Z,48.63
2023-05-03T18:31:29.091Z,48.51
2023-05-03T18:33:56.248Z,48.44
2023-05-03T18:36:24.124Z,48.50
2023-05-03T18:38:53.871Z,48.82
2023-05-03T18:41:21.069Z,47.34
2023-05-03T18:43:48.274Z,47.41
2023-05-03T18:46:19.795Z,47.26
2023-05-03T18:48:48.035Z,48.13
2023-05-03T18:51:15.294Z,47.95
2023-05-03T18:53:43.664Z,48.68
2023-05-03T18:56:11.067Z,49.08
2023-05-03T18:58:38.479Z,49.02
2023-05-03T19:01:06.065Z,49.32
2023-05-03T19:03:33.736Z,50.79
2023-05-03T19:06:07.470Z,50.07
2023-05-03T19:08:35.755Z,49.96
2023-05-03T19:11:10.357Z,49.25
2023-05-03T19:13:37.986Z,49.23
2023-05-03T19:16:05.456Z,50.00
2023-05-03T19:18:32.749Z,49.31
2023-05-03T19:20:59.861Z,49.71
2023-05-03T19:23:27.501Z,49.80
2023-05-03T19:25:54.569Z,49.86
2023-05-03T19:28:21.746Z,50.59
2023-05-03T19:30:51.964Z,49.88
2023-05-03T19:33:20.425Z,50.34
2023-05-03T19:35:48.154Z,50.89
2023-05-03T19:38:16.054Z,51.58
2023-05-03T19:40:55.890Z,53.04
2023-05-03T19:43:23.131Z,52.99
2023-05-03T19:45:50.495Z,53.32
2023-05-03T19:48:18.420Z,53.88
2023-05-03T19:50:45.661Z,54.01
2023-05-03T19:53:38.476Z,53.70
2023-05-03T19:56:07.202Z,53.54
2023-05-03T19:58:34.254Z,53.31
2023-05-03T20:01:01.818Z,52.55
2023-05-03T20:03:29.075Z,52.08
2023-05-03T20:05:56.654Z,52.50
2023-05-03T20:08:24.461Z,52.23
2023-05-03T20:10:51.758Z,52.73
2023-05-03T20:13:19.162Z,53.85
2023-05-03T20:15:47.131Z,53.94
2023-05-03T20:18:14.296Z,54.31
2023-05-03T20:20:41.456Z,55.01
2023-05-03T20:23:08.573Z,55.44
2023-05-03T20:25:35.781Z,55.97
2023-05-03T20:28:03.201Z,55.97
2023-05-03T20:30:31.893Z,56.36
2023-05-03T20:32:59.263Z,56.75
2023-05-03T20:35:26.840Z,56.72
2023-05-03T20:37:53.945Z,56.86
2023-05-03T20:40:21.405Z,56.99
2023-05-03T20:42:48.476Z,56.81
2023-05-03T20:45:15.766Z,56.94
2023-05-03T20:47:43.056Z,57.39
2023-05-03T20:50:10.578Z,57.76
2023-05-03T20:52:38.041Z,57.67
2023-05-03T20:55:05.356Z,57.91
2023-05-03T20:57:32.480Z,58.28
2023-05-03T21:00:00.274Z,58.21
2023-05-03T21:02:27.441Z,58.01
2023-05-03T21:04:54.521Z,57.72
2023-05-03T21:07:21.560Z,57.71
2023-05-03T21:09:48.615Z,57.96
2023-05-03T21:12:15.858Z,58.72
2023-05-03T21:14:42.983Z,58.47
2023-05-03T21:17:12.384Z,59.04
2023-05-03T21:19:40.091Z,58.89
2023-05-03T21:22:11.732Z,59.16
2023-05-03T21:24:38.778Z,59.49
2023-05-03T21:27:05.831Z,58.91
2023-05-03T21:29:33.013Z,58.21
2023-05-03T21:32:00.246Z,58.58
2023-05-03T21:34:27.503Z,58.32
2023-05-03T21:36:54.590Z,58.51
2023-05-03T21:39:21.851Z,58.84
2023-05-03T21:41:48.950Z,58.50
2023-05-03T21:44:15.976Z,59.19
2023-05-03T21:46:43.391Z,59.30
2023-05-03T21:49:10.481Z,59.33
2023-05-03T21:51:37.623Z,59.75
2023-05-03T21:54:04.903Z,59.76
2023-05-03T21:56:32.076Z,59.43
2023-05-03T21:58:59.197Z,59.01
2023-05-03T22:01:26.386Z,58.22
2023-05-03T22:03:53.900Z,58.13
2023-05-03T22:06:21.925Z,58.40
2023-05-03T22:08:49.384Z,58.70
2023-05-03T22:11:16.500Z,58.74
2023-05-03T22:13:58.778Z,58.88
2023-05-03T22:16:30.676Z,58.94
2023-05-03T22:18:58.541Z,59.79
2023-05-03T22:21:25.656Z,59.40
2023-05-03T22:23:52.948Z,59.26
2023-05-03T22:26:20.088Z,58.98
2023-05-03T22:28:47.115Z,58.81
2023-05-03T22:31:14.221Z,59.36
2023-05-03T22:33:44.928Z,60.04
2023-05-03T22:36:12.576Z,59.90
2023-05-03T22:38:42.050Z,60.49
2023-05-03T22:41:11.389Z,62.92
2023-05-03T22:43:38.545Z,64.68
2023-05-03T22:46:06.168Z,64.58
2023-05-03T22:48:34.234Z,64.20
2023-05-03T22:51:01.375Z,64.50
2023-05-03T22:53:28.597Z,64.25
2023-05-03T22:56:00.961Z,65.03
2023-05-03T22:58:28.813Z,64.38
2023-05-03T23:00:56.782Z,64.64
2023-05-03T23:03:24.152Z,65.18
2023-05-03T23:05:55.040Z,65.26
2023-05-03T23:08:22.484Z,64.60
2023-05-03T23:10:49.572Z,64.99
2023-05-03T23:13:16.983Z,64.77
2023-05-03T23:15:44.325Z,64.51
2023-05-03T23:18:11.382Z,64.44
2023-05-03T23:20:38.612Z,65.31
2023-05-03T23:23:05.682Z,65.03
2023-05-03T23:25:32.777Z,66.07
2023-05-03T23:27:59.902Z,66.15
2023-05-03T23:30:28.270Z,64.68
2023-05-03T23:32:55.923Z,64.14
2023-05-03T23:35:23.479Z,63.45
2023-05-03T23:37:50.640Z,62.77
2023-05-03T23:40:18.012Z,63.13
2023-05-03T23:42:46.529Z,63.45
2023-05-03T23:45:13.646Z,63.43
2023-05-03T23:47:40.696Z,63.91
2023-05-03T23:50:08.785Z,64.54
2023-05-03T23:52:36.082Z,64.33
2023-05-03T23:55:04.317Z,64.88
2023-05-03T23:57:31.656Z,64.31
2023-05-03T23:59:58.730Z,64.81
